createdAt,value
2023-05-19T00:02:09.407Z,11.55
2023-05-19T00:07:32.664Z,11.52
2023-05-19T00:12:53.907Z,11.47
2023-05-19T00:18:16.595Z,11.43
2023-05-19T00:23:37.626Z,11.38
2023-05-19T00:28:58.525Z,11.36
2023-05-19T00:34:20.284Z,11.37
2023-05-19T00:39:41.529Z,11.27
2023-05-19T00:45:02.474Z,11.24
2023-05-19T00:50:24.439Z,11.28
2023-05-19T00:55:46.448Z,11.24
2023-05-19T01:01:08.556Z,11.18
2023-05-19T01:06:29.751Z,11.12
2023-05-19T01:11:51.009Z,11.15
2023-05-19T01:17:17.766Z,11.13
2023-05-19T01:22:49.077Z,11.24
2023-05-19T01:28:16.116Z,11.35
2023-05-19T01:33:41.263Z,11.23
2023-05-19T01:39:02.848Z,11.10
2023-05-19T01:44:24.258Z,11.05
2023-05-19T01:49:45.229Z,11.02
2023-05-19T01:55:06.890Z,10.95
2023-05-19T02:00:48.841Z,11.03
2023-05-19T02:06:28.076Z,11.00
2023-05-19T02:12:02.502Z,10.87
2023-05-19T02:17:27.127Z,10.81
2023-05-19T02:22:49.122Z,10.78
2023-05-19T02:28:09.885Z,10.72
2023-05-19T02:33:31.541Z,10.72
2023-05-19T02:38:52.629Z,10.68
2023-05-19T02:44:13.523Z,10.64
2023-05-19T02:49:37.934Z,10.66
2023-05-19T02:54:58.812Z,10.79
2023-05-19T03:00:20.194Z,10.67
2023-05-19T03:05:43.421Z,10.44
2023-05-19T03:11:04.507Z,10.21
2023-05-19T03:16:25.476Z,10.09
2023-05-19T03:21:47.536Z,10.07
2023-05-19T03:27:08.243Z,9.93
2023-05-19T03:32:29.598Z,9.87
2023-05-19T03:37:51.068Z,10.06
2023-05-19T03:43:13.193Z,10.14
2023-05-19T03:48:41.360Z,10.29
2023-05-19T03:54:22.613Z,10.31
2023-05-19T03:59:45.415Z,10.14
2023-05-19T04:05:07.286Z,10.19
2023-05-19T04:10:28.400Z,10.12
2023-05-19T04:15:49.670Z,10.68
2023-05-19T04:21:10.877Z,11.43
2023-05-19T04:26:34.120Z,12.02
2023-05-19T04:31:56.203Z,12.54
2023-05-19T04:37:18.031Z,12.92
2023-05-19T04:42:41.616Z,13.44
2023-05-19T04:48:04.551Z,13.66
2023-05-19T04:53:25.789Z,14.04
2023-05-19T04:58:48.947Z,14.41
2023-05-19T05:04:10.708Z,14.96
2023-05-19T05:09:32.009Z,14.86
2023-05-19T05:14:55.592Z,14.75
2023-05-19T05:20:17.172Z,14.67
2023-05-19T05:25:38.658Z,14.72
2023-05-19T05:30:59.825Z,14.82
2023-05-19T05:36:21.368Z,14.84
2023-05-19T05:41:42.686Z,14.91
2023-05-19T05:47:06.677Z,15.05
2023-05-19T05:52:30.456Z,15.35
2023-05-19T05:57:52.786Z,15.73
2023-05-19T06:03:14.906Z,15.54
2023-05-19T06:08:36.061Z,15.74
2023-05-19T06:13:58.509Z,16.18
2023-05-19T06:19:45.591Z,16.44
2023-05-19T06:25:09.034Z,16.34
2023-05-19T06:30:30.840Z,16.34
2023-05-19T06:36:12.233Z,16.65
2023-05-19T06:41:36.128Z,16.26
2023-05-19T06:46:57.489Z,16.27
2023-05-19T06:52:18.654Z,16.53
2023-05-19T06:57:40.176Z,16.48
2023-05-19T07:03:02.034Z,16.68
2023-05-19T07:08:23.834Z,16.70
2023-05-19T07:13:45.081Z,16.54
2023-05-19T07:19:09.611Z,16.42
2023-05-19T07:24:31.658Z,16.34
2023-05-19T07:29:52.844Z,16.29
2023-05-19T07:35:14.210Z,16.05
2023-05-19T07:40:35.387Z,15.97
2023-05-19T07:45:56.667Z,15.61
2023-05-19T07:51:17.544Z,15.53
2023-05-19T07:56:38.622Z,15.38
2023-05-19T08:01:59.870Z,15.44
2023-05-19T08:07:20.828Z,15.64
2023-05-19T08:12:41.709Z,15.56
2023-05-19T08:18:03.309Z,15.84
2023-05-19T08:23:24.495Z,15.98
2023-05-19T08:28:45.224Z,15.92
2023-05-19T08:34:06.206Z,16.17
2023-05-19T08:39:27.451Z,16.08
2023-05-19T08:44:48.448Z,15.87
2023-05-19T08:50:13.479Z,15.63
2023-05-19T08:55:44.626Z,15.77
2023-05-19T09:01:06.856Z,15.81
2023-05-19T09:06:28.133Z,15.66
2023-05-19T09:11:49.300Z,15.67
2023-05-19T09:17:10.687Z,15.78
2023-05-19T09:22:35.972Z,15.62
2023-05-19T09:27:57.358Z,15.60
2023-05-19T09:33:20.106Z,15.75
2023-05-19T09:38:41.584Z,16.04
2023-05-19T09:44:02.899Z,16.08
2023-05-19T09:49:25.466Z,15.76
2023-05-19T09:54:48.729Z,15.75
2023-05-19T10:00:19.989Z,15.83
2023-05-19T10:05:42.108Z,15.72
2023-05-19T10:11:03.604Z,15.79
2023-05-19T10:16:26.836Z,15.91
2023-05-19T10:21:47.816Z,16.01
2023-05-19T10:27:12.052Z,16.20
2023-05-19T10:32:34.413Z,16.27
2023-05-19T10:38:14.483Z,16.37
2023-05-19T10:43:52.099Z,16.22
2023-05-19T10:49:23.622Z,16.26
2023-05-19T10:54:47.416Z,16.27
2023-05-19T11:00:28.622Z,16.43
2023-05-19T11:05:52.368Z,16.71
2023-05-19T11:11:17.604Z,16.58
2023-05-19T11:16:41.849Z,16.17
2023-05-19T11:22:13.132Z,16.02
2023-05-19T11:27:38.365Z,16.08
2023-05-19T11:33:00.032Z,16.05
2023-05-19T11:38:22.149Z,16.01
2023-05-19T11:43:43.108Z,16.08
2023-05-19T11:49:05.797Z,16.08
2023-05-19T11:54:37.448Z,15.94
2023-05-19T12:00:02.643Z,16.04
2023-05-19T12:05:27.224Z,16.03
2023-05-19T12:10:52.433Z,15.89
2023-05-19T12:16:13.865Z,15.92
2023-05-19T12:21:35.869Z,16.01
2023-05-19T12:27:28.890Z,15.92
2023-05-19T12:32:52.023Z,15.88
2023-05-19T12:38:14.546Z,15.94
2023-05-19T12:43:39.565Z,15.91
2023-05-19T12:49:01.253Z,16.01
2023-05-19T12:54:22.345Z,16.10
2023-05-19T12:59:43.989Z,16.19
2023-05-19T13:05:05.786Z,16.22
2023-05-19T13:10:28.306Z,16.25
2023-05-19T13:15:49.490Z,16.25
2023-05-19T13:21:11.291Z,16.09
2023-05-19T13:26:32.164Z,15.99
2023-05-19T13:31:52.819Z,15.91
2023-05-19T13:37:13.820Z,15.90
2023-05-19T13:42:35.387Z,15.93
2023-05-19T13:47:56.740Z,15.95
2023-05-19T13:53:17.936Z,15.98
2023-05-19T13:58:38.847Z,15.96
2023-05-19T14:04:00.900Z,16.02
2023-05-19T14:09:22.064Z,15.97
2023-05-19T14:14:43.536Z,16.02
2023-05-19T14:20:04.828Z,15.96
2023-05-19T14:25:25.762Z,15.91
2023-05-19T14:30:46.525Z,15.85
2023-05-19T14:36:09.108Z,15.76
2023-05-19T14:41:30.556Z,15.87
2023-05-19T14:46:51.720Z,15.95
2023-05-19T14:52:12.762Z,15.97
2023-05-19T14:57:33.429Z,15.89
2023-05-19T15:02:54.880Z,15.93
2023-05-19T15:08:16.079Z,15.97
2023-05-19T15:13:37.245Z,16.05
2023-05-19T15:18:58.217Z,15.97
2023-05-19T15:24:19.325Z,15.94
2023-05-19T15:29:40.656Z,15.85
2023-05-19T15:35:01.374Z,15.82
2023-05-19T15:40:22.401Z,15.76
2023-05-19T15:45:43.164Z,15.69
2023-05-19T15:51:04.259Z,15.61
2023-05-19T15:56:24.973Z,15.53
2023-05-19T16:01:46.166Z,15.49
2023-05-19T16:07:07.342Z,15.53
2023-05-19T16:12:29.571Z,15.54
2023-05-19T16:17:50.432Z,15.59
2023-05-19T16:23:11.321Z,15.60
2023-05-19T16:28:32.673Z,15.51
2023-05-19T16:33:54.070Z,15.43
2023-05-19T16:39:15.750Z,15.36
2023-05-19T16:44:36.731Z,15.34
2023-05-19T16:49:57.494Z,15.26
2023-05-19T16:55:20.128Z,15.22
2023-05-19T17:00:41.220Z,15.18
2023-05-19T17:06:02.032Z,15.03
2023-05-19T17:11:23.035Z,14.94
2023-05-19T17:16:44.521Z,14.90
2023-05-19T17:22:05.583Z,14.87
2023-05-19T17:27:26.450Z,14.80
2023-05-19T17:32:47.747Z,14.76
2023-05-19T17:38:08.873Z,14.68
2023-05-19T17:43:29.893Z,14.66
2023-05-19T17:48:50.877Z,14.56
2023-05-19T17:54:12.372Z,14.55
2023-05-19T17:59:33.866Z,14.42
2023-05-19T18:04:55.740Z,14.36
2023-05-19T18:10:17.607Z,14.25
2023-05-19T18:15:38.576Z,14.22
2023-05-19T18:21:00.180Z,14.17
2023-05-19T18:26:21.603Z,14.12
2023-05-19T18:31:44.584Z,14.08
2023-05-19T18:37:05.626Z,13.98
2023-05-19T18:42:26.687Z,13.91
2023-05-19T18:47:47.876Z,13.89
2023-05-19T18:53:08.739Z,13.83
2023-05-19T18:58:29.582Z,13.77
2023-05-19T19:03:50.671Z,13.69
2023-05-19T19:09:11.921Z,13.62
2023-05-19T19:14:32.484Z,13.50
2023-05-19T19:19:53.528Z,13.44
2023-05-19T19:25:14.971Z,13.40
2023-05-19T19:30:36.577Z,13.48
2023-05-19T19:35:57.825Z,13.44
2023-05-19T19:41:20.006Z,13.34
2023-05-19T19:46:41.290Z,13.26
2023-05-19T19:52:02.494Z,13.15
2023-05-19T19:57:24.545Z,13.12
2023-05-19T20:03:02.971Z,13.08
2023-05-19T20:08:26.373Z,12.96
2023-05-19T20:13:47.673Z,12.90
2023-05-19T20:19:09.365Z,12.84
2023-05-19T20:24:30.303Z,12.70
2023-05-19T20:29:51.109Z,12.66
2023-05-19T20:35:12.675Z,12.60
2023-05-19T20:40:33.876Z,12.56
2023-05-19T20:45:58.018Z,12.53
2023-05-19T20:51:19.689Z,12.49
2023-05-19T20:56:42.280Z,12.29
2023-05-19T21:02:03.558Z,12.16
2023-05-19T21:07:25.551Z,12.11
2023-05-19T21:12:46.880Z,12.06
2023-05-19T21:18:08.481Z,12.03
2023-05-19T21:23:29.257Z,11.96
2023-05-19T21:28:50.144Z,11.89
2023-05-19T21:34:11.030Z,11.83
2023-05-19T21:39:31.913Z,11.75
2023-05-19T21:44:52.691Z,11.67
2023-05-19T21:50:17.632Z,11.69
2023-05-19T21:55:39.448Z,11.69
2023-05-19T22:01:00.604Z,11.66
2023-05-19T22:06:22.082Z,11.69
2023-05-19T22:11:43.417Z,11.70
2023-05-19T22:17:04.399Z,11.68
2023-05-19T22:22:25.583Z,11.66
2023-05-19T22:27:46.473Z,11.66
2023-05-19T22:33:08.705Z,11.66
2023-05-19T22:38:29.828Z,11.69
2023-05-19T22:43:50.898Z,11.73
2023-05-19T22:49:12.057Z,11.73
2023-05-19T22:54:35.315Z,11.70
2023-05-19T22:59:56.508Z,11.64
2023-05-19T23:05:17.445Z,11.69
2023-05-19T23:10:38.477Z,11.73
2023-05-19T23:15:59.691Z,11.78
2023-05-19T23:21:20.594Z,11.87
2023-05-19T23:26:44.615Z,11.89
2023-05-19T23:32:05.802Z,11.90
2023-05-19T23:37:26.711Z,11.86
2023-05-19T23:42:47.456Z,11.79
2023-05-19T23:48:08.268Z,11.76
2023-05-19T23:53:29.511Z,11.71
2023-05-19T23:58:50.563Z,11.80
